Terminal Aerodrome Forecast
Issued by NWS

Home | Current Version | Previous Version | Text Only | Print | Product List | Glossary On
Versions: 1 2 3 4 5 6 7 8 9 10 11 12
152
FTUS42 TJSJ 051146
TAFJMZ
TAF
TJMZ 051146Z 0512/0612 07004KT P6SM FEW030 SCT070
     FM051500 12006KT P6SM SCT025 SCT040
     FM051800 22009KT P6SM VCTS SCT022CB BKN040
     FM052300 06005KT P6SM FEW030 BKN050 BKN090
      AMD NOT SKED=

USA.gov is the U.S. government's official web portal to all federal, state and local government web resources and services.